sensor_id;sensor_type;location;lat;lon;timestamp;P1;durP1;ratioP1;P2;durP2;ratioP2
27893;SDS011;15240;50.812;4.792;2023-02-26T00:01:42;16.73;;;8.03;;
27893;SDS011;15240;50.812;4.792;2023-02-26T00:04:08;17.77;;;6.97;;
27893;SDS011;15240;50.812;4.792;2023-02-26T00:06:35;14.73;;;6.93;;
27893;SDS011;15240;50.812;4.792;2023-02-26T00:09:02;20.60;;;7.17;;
27893;SDS011;15240;50.812;4.792;2023-02-26T00:11:29;17.03;;;7.57;;
27893;SDS011;15240;50.812;4.792;2023-02-26T00:13:55;17.00;;;7.23;;
27893;SDS011;15240;50.812;4.792;2023-02-26T00:16:33;17.33;;;8.13;;
27893;SDS011;15240;50.812;4.792;2023-02-26T00:19:00;11.03;;;6.70;;
27893;SDS011;15240;50.812;4.792;2023-02-26T00:21:27;20.03;;;7.80;;
27893;SDS011;15240;50.812;4.792;2023-02-26T00:23:54;12.20;;;6.87;;
27893;SDS011;15240;50.812;4.792;2023-02-26T00:26:20;18.40;;;7.13;;
27893;SDS011;15240;50.812;4.792;2023-02-26T00:28:47;17.83;;;6.90;;
27893;SDS011;15240;50.812;4.792;2023-02-26T00:31:14;17.70;;;6.80;;
27893;SDS011;15240;50.812;4.792;2023-02-26T00:33:41;21.60;;;6.67;;
27893;SDS011;15240;50.812;4.792;2023-02-26T00:36:20;16.43;;;6.53;;
27893;SDS011;15240;50.812;4.792;2023-02-26T00:41:28;15.37;;;6.50;;
27893;SDS011;15240;50.812;4.792;2023-02-26T00:43:55;17.70;;;6.93;;
27893;SDS011;15240;50.812;4.792;2023-02-26T00:53:47;15.43;;;5.23;;
27893;SDS011;15240;50.812;4.792;2023-02-26T00:56:15;17.33;;;6.40;;
27893;SDS011;15240;50.812;4.792;2023-02-26T00:58:41;14.93;;;6.10;;
27893;SDS011;15240;50.812;4.792;2023-02-26T01:01:08;12.97;;;6.27;;
27893;SDS011;15240;50.812;4.792;2023-02-26T01:03:34;15.63;;;6.00;;
27893;SDS011;15240;50.812;4.792;2023-02-26T01:06:00;13.10;;;6.13;;
27893;SDS011;15240;50.812;4.792;2023-02-26T01:08:41;9.90;;;6.00;;
27893;SDS011;15240;50.812;4.792;2023-02-26T01:11:09;17.27;;;6.50;;
27893;SDS011;15240;50.812;4.792;2023-02-26T01:13:35;15.43;;;6.33;;
27893;SDS011;15240;50.812;4.792;2023-02-26T01:16:04;12.07;;;6.27;;
27893;SDS011;15240;50.812;4.792;2023-02-26T01:18:32;17.30;;;6.00;;
27893;SDS011;15240;50.812;4.792;2023-02-26T01:21:04;15.10;;;6.20;;
27893;SDS011;15240;50.812;4.792;2023-02-26T01:23:32;13.33;;;6.43;;
27893;SDS011;15240;50.812;4.792;2023-02-26T01:26:11;15.87;;;6.03;;
27893;SDS011;15240;50.812;4.792;2023-02-26T01:28:39;13.47;;;5.60;;
27893;SDS011;15240;50.812;4.792;2023-02-26T01:31:05;13.07;;;5.90;;
27893;SDS011;15240;50.812;4.792;2023-02-26T01:33:49;21.00;;;7.07;;
27893;SDS011;15240;50.812;4.792;2023-02-26T01:36:20;15.93;;;6.57;;
27893;SDS011;15240;50.812;4.792;2023-02-26T01:41:21;17.83;;;6.90;;
27893;SDS011;15240;50.812;4.792;2023-02-26T01:48:57;17.43;;;6.30;;
27893;SDS011;15240;50.812;4.792;2023-02-26T01:54:08;18.57;;;6.23;;
27893;SDS011;15240;50.812;4.792;2023-02-26T01:56:34;15.90;;;6.37;;
27893;SDS011;15240;50.812;4.792;2023-02-26T01:59:01;12.80;;;6.00;;
27893;SDS011;15240;50.812;4.792;2023-02-26T02:01:30;18.00;;;5.90;;
27893;SDS011;15240;50.812;4.792;2023-02-26T02:03:57;11.80;;;6.17;;
27893;SDS011;15240;50.812;4.792;2023-02-26T02:06:24;15.50;;;6.87;;
27893;SDS011;15240;50.812;4.792;2023-02-26T02:08:51;14.63;;;6.13;;
27893;SDS011;15240;50.812;4.792;2023-02-26T02:11:17;15.27;;;7.20;;
27893;SDS011;15240;50.812;4.792;2023-02-26T02:13:53;20.97;;;7.60;;
27893;SDS011;15240;50.812;4.792;2023-02-26T02:16:31;16.20;;;6.77;;
27893;SDS011;15240;50.812;4.792;2023-02-26T02:26:37;17.00;;;7.03;;
27893;SDS011;15240;50.812;4.792;2023-02-26T02:34:18;14.77;;;6.93;;
27893;SDS011;15240;50.812;4.792;2023-02-26T02:37:00;13.53;;;6.43;;
27893;SDS011;15240;50.812;4.792;2023-02-26T02:40:03;15.27;;;6.43;;
27893;SDS011;15240;50.812;4.792;2023-02-26T02:42:23;14.97;;;5.87;;
27893;SDS011;15240;50.812;4.792;2023-02-26T02:44:58;14.17;;;6.80;;
27893;SDS011;15240;50.812;4.792;2023-02-26T02:47:26;12.77;;;6.13;;
27893;SDS011;15240;50.812;4.792;2023-02-26T02:49:56;15.07;;;6.40;;
27893;SDS011;15240;50.812;4.792;2023-02-26T02:52:28;15.13;;;6.70;;
27893;SDS011;15240;50.812;4.792;2023-02-26T02:54:59;16.27;;;6.20;;
27893;SDS011;15240;50.812;4.792;2023-02-26T02:57:49;15.20;;;6.33;;
27893;SDS011;15240;50.812;4.792;2023-02-26T03:00:13;13.83;;;5.80;;
27893;SDS011;15240;50.812;4.792;2023-02-26T03:05:13;16.63;;;6.47;;
27893;SDS011;15240;50.812;4.792;2023-02-26T03:07:42;13.13;;;6.07;;
27893;SDS011;15240;50.812;4.792;2023-02-26T03:10:10;16.93;;;6.13;;
27893;SDS011;15240;50.812;4.792;2023-02-26T03:12:36;15.30;;;6.50;;
27893;SDS011;15240;50.812;4.792;2023-02-26T03:15:02;14.53;;;6.10;;
27893;SDS011;15240;50.812;4.792;2023-02-26T03:25:19;16.43;;;5.50;;
27893;SDS011;15240;50.812;4.792;2023-02-26T03:27:48;11.73;;;6.00;;
27893;SDS011;15240;50.812;4.792;2023-02-26T03:30:19;15.57;;;5.83;;
27893;SDS011;15240;50.812;4.792;2023-02-26T03:35:34;12.97;;;4.73;;
27893;SDS011;15240;50.812;4.792;2023-02-26T03:38:02;15.67;;;5.90;;
27893;SDS011;15240;50.812;4.792;2023-02-26T03:40:31;12.83;;;5.33;;
27893;SDS011;15240;50.812;4.792;2023-02-26T03:42:59;10.27;;;5.20;;
27893;SDS011;15240;50.812;4.792;2023-02-26T03:45:31;11.93;;;5.17;;
27893;SDS011;15240;50.812;4.792;2023-02-26T03:47:58;15.27;;;5.93;;
27893;SDS011;15240;50.812;4.792;2023-02-26T03:50:28;12.87;;;5.97;;
27893;SDS011;15240;50.812;4.792;2023-02-26T03:52:57;16.70;;;5.17;;
27893;SDS011;15240;50.812;4.792;2023-02-26T03:55:27;20.50;;;5.77;;
27893;SDS011;15240;50.812;4.792;2023-02-26T03:57:54;12.60;;;4.80;;
27893;SDS011;15240;50.812;4.792;2023-02-26T04:00:21;13.87;;;4.77;;
27893;SDS011;15240;50.812;4.792;2023-02-26T04:02:51;13.37;;;5.73;;
27893;SDS011;15240;50.812;4.792;2023-02-26T04:05:18;10.77;;;5.37;;
27893;SDS011;15240;50.812;4.792;2023-02-26T04:07:46;13.60;;;5.43;;
27893;SDS011;15240;50.812;4.792;2023-02-26T04:10:13;12.40;;;6.13;;
27893;SDS011;15240;50.812;4.792;2023-02-26T04:12:40;18.50;;;5.77;;
27893;SDS011;15240;50.812;4.792;2023-02-26T04:15:06;13.03;;;5.60;;
27893;SDS011;15240;50.812;4.792;2023-02-26T04:17:33;13.17;;;5.13;;
27893;SDS011;15240;50.812;4.792;2023-02-26T04:19:59;14.00;;;4.87;;
27893;SDS011;15240;50.812;4.792;2023-02-26T04:22:25;10.30;;;5.33;;
27893;SDS011;15240;50.812;4.792;2023-02-26T04:24:51;11.50;;;5.37;;
27893;SDS011;15240;50.812;4.792;2023-02-26T04:27:17;13.07;;;5.47;;
27893;SDS011;15240;50.812;4.792;2023-02-26T04:29:43;15.57;;;5.43;;
27893;SDS011;15240;50.812;4.792;2023-02-26T04:32:09;13.83;;;5.03;;
27893;SDS011;15240;50.812;4.792;2023-02-26T04:34:35;12.00;;;5.23;;
27893;SDS011;15240;50.812;4.792;2023-02-26T04:37:01;15.07;;;4.93;;
27893;SDS011;15240;50.812;4.792;2023-02-26T04:39:27;13.97;;;5.60;;
27893;SDS011;15240;50.812;4.792;2023-02-26T04:41:53;12.37;;;5.13;;
27893;SDS011;15240;50.812;4.792;2023-02-26T04:44:20;13.33;;;5.23;;
27893;SDS011;15240;50.812;4.792;2023-02-26T04:46:46;13.70;;;5.30;;
27893;SDS011;15240;50.812;4.792;2023-02-26T04:49:12;16.73;;;5.13;;
27893;SDS011;15240;50.812;4.792;2023-02-26T04:51:38;16.13;;;5.63;;
27893;SDS011;15240;50.812;4.792;2023-02-26T04:54:04;15.10;;;4.53;;
27893;SDS011;15240;50.812;4.792;2023-02-26T04:56:31;10.23;;;4.73;;
27893;SDS011;15240;50.812;4.792;2023-02-26T04:58:57;12.23;;;4.13;;
27893;SDS011;15240;50.812;4.792;2023-02-26T05:01:23;12.80;;;4.43;;
27893;SDS011;15240;50.812;4.792;2023-02-26T05:03:49;12.40;;;4.30;;
27893;SDS011;15240;50.812;4.792;2023-02-26T05:06:15;13.23;;;4.90;;
27893;SDS011;15240;50.812;4.792;2023-02-26T05:08:41;10.93;;;3.77;;
27893;SDS011;15240;50.812;4.792;2023-02-26T05:11:08;9.50;;;3.93;;
27893;SDS011;15240;50.812;4.792;2023-02-26T05:13:34;10.03;;;3.93;;
27893;SDS011;15240;50.812;4.792;2023-02-26T05:16:00;9.90;;;3.43;;
27893;SDS011;15240;50.812;4.792;2023-02-26T05:18:26;12.60;;;3.93;;
27893;SDS011;15240;50.812;4.792;2023-02-26T05:20:53;7.83;;;3.20;;
27893;SDS011;15240;50.812;4.792;2023-02-26T05:23:19;7.67;;;3.33;;
27893;SDS011;15240;50.812;4.792;2023-02-26T05:25:45;12.40;;;3.83;;
27893;SDS011;15240;50.812;4.792;2023-02-26T05:28:12;9.17;;;3.20;;
27893;SDS011;15240;50.812;4.792;2023-02-26T05:30:38;10.47;;;3.30;;
27893;SDS011;15240;50.812;4.792;2023-02-26T05:33:04;8.17;;;3.50;;
27893;SDS011;15240;50.812;4.792;2023-02-26T05:35:31;8.33;;;2.83;;
27893;SDS011;15240;50.812;4.792;2023-02-26T05:37:57;8.77;;;3.37;;
27893;SDS011;15240;50.812;4.792;2023-02-26T05:40:24;9.00;;;3.10;;
27893;SDS011;15240;50.812;4.792;2023-02-26T05:42:50;10.83;;;3.60;;
27893;SDS011;15240;50.812;4.792;2023-02-26T05:45:16;11.77;;;3.10;;
27893;SDS011;15240;50.812;4.792;2023-02-26T05:47:42;9.83;;;3.20;;
27893;SDS011;15240;50.812;4.792;2023-02-26T05:50:09;9.63;;;3.33;;
27893;SDS011;15240;50.812;4.792;2023-02-26T05:52:35;6.37;;;2.73;;
27893;SDS011;15240;50.812;4.792;2023-02-26T05:55:01;14.07;;;3.33;;
27893;SDS011;15240;50.812;4.792;2023-02-26T05:57:27;9.07;;;3.30;;
27893;SDS011;15240;50.812;4.792;2023-02-26T05:59:53;7.20;;;3.03;;
27893;SDS011;15240;50.812;4.792;2023-02-26T06:02:19;12.40;;;3.17;;
27893;SDS011;15240;50.812;4.792;2023-02-26T06:04:46;9.27;;;3.57;;
27893;SDS011;15240;50.812;4.792;2023-02-26T06:07:12;8.43;;;2.93;;
27893;SDS011;15240;50.812;4.792;2023-02-26T06:09:39;9.07;;;3.20;;
27893;SDS011;15240;50.812;4.792;2023-02-26T06:12:05;10.20;;;2.77;;
27893;SDS011;15240;50.812;4.792;2023-02-26T06:14:31;11.43;;;3.40;;
27893;SDS011;15240;50.812;4.792;2023-02-26T06:16:58;13.13;;;3.10;;
27893;SDS011;15240;50.812;4.792;2023-02-26T06:19:24;10.30;;;3.50;;
27893;SDS011;15240;50.812;4.792;2023-02-26T06:21:50;10.30;;;3.23;;
27893;SDS011;15240;50.812;4.792;2023-02-26T06:24:17;9.60;;;3.07;;
27893;SDS011;15240;50.812;4.792;2023-02-26T06:26:43;10.17;;;2.73;;
27893;SDS011;15240;50.812;4.792;2023-02-26T06:29:09;7.57;;;2.70;;
27893;SDS011;15240;50.812;4.792;2023-02-26T06:31:35;14.60;;;4.67;;
27893;SDS011;15240;50.812;4.792;2023-02-26T06:34:01;14.43;;;8.40;;
27893;SDS011;15240;50.812;4.792;2023-02-26T06:36:27;25.67;;;12.57;;
27893;SDS011;15240;50.812;4.792;2023-02-26T06:38:53;17.43;;;8.97;;
27893;SDS011;15240;50.812;4.792;2023-02-26T06:41:19;18.23;;;7.60;;
27893;SDS011;15240;50.812;4.792;2023-02-26T06:43:46;8.53;;;4.10;;
27893;SDS011;15240;50.812;4.792;2023-02-26T06:46:12;9.87;;;2.77;;
27893;SDS011;15240;50.812;4.792;2023-02-26T06:48:38;16.07;;;7.03;;
27893;SDS011;15240;50.812;4.792;2023-02-26T06:51:04;8.80;;;3.60;;
27893;SDS011;15240;50.812;4.792;2023-02-26T06:53:30;8.20;;;3.13;;
27893;SDS011;15240;50.812;4.792;2023-02-26T06:55:57;7.23;;;2.80;;
27893;SDS011;15240;50.812;4.792;2023-02-26T06:58:23;10.43;;;4.17;;
27893;SDS011;15240;50.812;4.792;2023-02-26T07:00:49;7.80;;;3.37;;
27893;SDS011;15240;50.812;4.792;2023-02-26T07:03:15;14.03;;;6.83;;
27893;SDS011;15240;50.812;4.792;2023-02-26T07:05:42;10.87;;;3.60;;
27893;SDS011;15240;50.812;4.792;2023-02-26T07:08:09;11.03;;;4.17;;
27893;SDS011;15240;50.812;4.792;2023-02-26T07:10:35;12.37;;;4.40;;
27893;SDS011;15240;50.812;4.792;2023-02-26T07:13:01;13.07;;;4.47;;
27893;SDS011;15240;50.812;4.792;2023-02-26T07:15:27;8.17;;;3.00;;
27893;SDS011;15240;50.812;4.792;2023-02-26T07:17:54;9.10;;;2.97;;
27893;SDS011;15240;50.812;4.792;2023-02-26T07:20:20;8.60;;;3.27;;
27893;SDS011;15240;50.812;4.792;2023-02-26T07:22:47;11.47;;;3.50;;
27893;SDS011;15240;50.812;4.792;2023-02-26T07:25:13;7.23;;;3.03;;
27893;SDS011;15240;50.812;4.792;2023-02-26T07:27:40;8.03;;;2.93;;
27893;SDS011;15240;50.812;4.792;2023-02-26T07:30:06;12.37;;;3.40;;
27893;SDS011;15240;50.812;4.792;2023-02-26T07:32:32;8.37;;;3.73;;
27893;SDS011;15240;50.812;4.792;2023-02-26T07:34:59;8.87;;;3.27;;
27893;SDS011;15240;50.812;4.792;2023-02-26T07:37:25;17.90;;;9.77;;
27893;SDS011;15240;50.812;4.792;2023-02-26T07:39:52;20.87;;;9.93;;
27893;SDS011;15240;50.812;4.792;2023-02-26T07:42:18;15.27;;;6.93;;
27893;SDS011;15240;50.812;4.792;2023-02-26T07:44:44;16.87;;;8.23;;
27893;SDS011;15240;50.812;4.792;2023-02-26T07:47:11;16.57;;;7.20;;
27893;SDS011;15240;50.812;4.792;2023-02-26T07:49:37;14.73;;;5.23;;
27893;SDS011;15240;50.812;4.792;2023-02-26T07:52:03;18.43;;;8.37;;
27893;SDS011;15240;50.812;4.792;2023-02-26T07:54:31;10.43;;;3.37;;
27893;SDS011;15240;50.812;4.792;2023-02-26T07:56:57;12.87;;;6.93;;
27893;SDS011;15240;50.812;4.792;2023-02-26T07:59:26;27.80;;;16.03;;
27893;SDS011;15240;50.812;4.792;2023-02-26T08:01:52;8.97;;;4.30;;
27893;SDS011;15240;50.812;4.792;2023-02-26T08:04:19;23.13;;;12.87;;
27893;SDS011;15240;50.812;4.792;2023-02-26T08:06:45;9.73;;;5.10;;
27893;SDS011;15240;50.812;4.792;2023-02-26T08:09:11;15.00;;;6.80;;
27893;SDS011;15240;50.812;4.792;2023-02-26T08:11:37;13.90;;;6.90;;
27893;SDS011;15240;50.812;4.792;2023-02-26T08:14:05;30.77;;;14.83;;
27893;SDS011;15240;50.812;4.792;2023-02-26T08:16:31;35.67;;;14.83;;
27893;SDS011;15240;50.812;4.792;2023-02-26T08:18:57;65.83;;;27.87;;
27893;SDS011;15240;50.812;4.792;2023-02-26T08:21:24;18.10;;;6.10;;
27893;SDS011;15240;50.812;4.792;2023-02-26T08:23:50;7.70;;;3.17;;
27893;SDS011;15240;50.812;4.792;2023-02-26T08:26:16;6.37;;;2.10;;
27893;SDS011;15240;50.812;4.792;2023-02-26T08:28:43;13.13;;;6.63;;
27893;SDS011;15240;50.812;4.792;2023-02-26T08:31:10;8.17;;;3.63;;
27893;SDS011;15240;50.812;4.792;2023-02-26T08:33:37;19.60;;;7.13;;
27893;SDS011;15240;50.812;4.792;2023-02-26T08:36:03;13.60;;;5.67;;
27893;SDS011;15240;50.812;4.792;2023-02-26T08:38:30;13.23;;;5.03;;
27893;SDS011;15240;50.812;4.792;2023-02-26T08:40:56;17.20;;;7.40;;
27893;SDS011;15240;50.812;4.792;2023-02-26T08:43:22;15.67;;;6.40;;
27893;SDS011;15240;50.812;4.792;2023-02-26T08:45:50;5.13;;;2.50;;
27893;SDS011;15240;50.812;4.792;2023-02-26T08:48:17;7.40;;;3.10;;
27893;SDS011;15240;50.812;4.792;2023-02-26T08:50:43;6.97;;;2.33;;
27893;SDS011;15240;50.812;4.792;2023-02-26T08:53:09;8.80;;;2.17;;
27893;SDS011;15240;50.812;4.792;2023-02-26T08:55:36;8.60;;;2.70;;
27893;SDS011;15240;50.812;4.792;2023-02-26T08:58:02;6.70;;;3.97;;
27893;SDS011;15240;50.812;4.792;2023-02-26T09:00:28;8.43;;;3.80;;
27893;SDS011;15240;50.812;4.792;2023-02-26T09:02:57;5.50;;;1.77;;
27893;SDS011;15240;50.812;4.792;2023-02-26T09:05:23;6.73;;;2.20;;
27893;SDS011;15240;50.812;4.792;2023-02-26T09:07:49;8.87;;;3.87;;
27893;SDS011;15240;50.812;4.792;2023-02-26T09:10:15;12.13;;;6.67;;
27893;SDS011;15240;50.812;4.792;2023-02-26T09:12:41;8.07;;;4.20;;
27893;SDS011;15240;50.812;4.792;2023-02-26T09:15:08;10.57;;;4.83;;
27893;SDS011;15240;50.812;4.792;2023-02-26T09:17:35;6.67;;;2.80;;
27893;SDS011;15240;50.812;4.792;2023-02-26T09:20:01;8.23;;;2.07;;
27893;SDS011;15240;50.812;4.792;2023-02-26T09:22:27;7.33;;;3.60;;
27893;SDS011;15240;50.812;4.792;2023-02-26T09:24:54;3.20;;;1.50;;
27893;SDS011;15240;50.812;4.792;2023-02-26T09:27:21;7.37;;;1.83;;
27893;SDS011;15240;50.812;4.792;2023-02-26T09:29:47;4.53;;;2.10;;
27893;SDS011;15240;50.812;4.792;2023-02-26T09:32:13;5.77;;;1.73;;
27893;SDS011;15240;50.812;4.792;2023-02-26T09:34:39;6.27;;;1.93;;
27893;SDS011;15240;50.812;4.792;2023-02-26T09:37:07;5.70;;;1.90;;
27893;SDS011;15240;50.812;4.792;2023-02-26T09:39:33;5.40;;;2.53;;
27893;SDS011;15240;50.812;4.792;2023-02-26T09:44:44;8.33;;;2.90;;
27893;SDS011;15240;50.812;4.792;2023-02-26T09:47:16;8.77;;;1.83;;
27893;SDS011;15240;50.812;4.792;2023-02-26T09:54:52;3.03;;;1.33;;
27893;SDS011;15240;50.812;4.792;2023-02-26T09:57:26;5.13;;;2.30;;
27893;SDS011;15240;50.812;4.792;2023-02-26T09:59:53;6.80;;;1.50;;
27893;SDS011;15240;50.812;4.792;2023-02-26T10:12:17;4.70;;;1.67;;
27893;SDS011;15240;50.812;4.792;2023-02-26T10:14:49;3.27;;;1.80;;
27893;SDS011;15240;50.812;4.792;2023-02-26T10:20:05;2.47;;;1.10;;
27893;SDS011;15240;50.812;4.792;2023-02-26T10:22:36;3.80;;;1.43;;
27893;SDS011;15240;50.812;4.792;2023-02-26T10:25:08;4.30;;;1.37;;
27893;SDS011;15240;50.812;4.792;2023-02-26T10:27:43;8.13;;;7.43;;
27893;SDS011;15240;50.812;4.792;2023-02-26T10:30:15;6.53;;;2.00;;
27893;SDS011;15240;50.812;4.792;2023-02-26T10:33:18;5.70;;;1.90;;
27893;SDS011;15240;50.812;4.792;2023-02-26T10:35:38;5.07;;;1.57;;
27893;SDS011;15240;50.812;4.792;2023-02-26T10:38:13;6.40;;;1.33;;
27893;SDS011;15240;50.812;4.792;2023-02-26T10:40:46;4.73;;;1.43;;
27893;SDS011;15240;50.812;4.792;2023-02-26T10:43:22;2.60;;;1.40;;
27893;SDS011;15240;50.812;4.792;2023-02-26T10:51:13;2.00;;;1.30;;
27893;SDS011;15240;50.812;4.792;2023-02-26T10:53:42;2.60;;;1.33;;
27893;SDS011;15240;50.812;4.792;2023-02-26T10:56:10;4.93;;;2.13;;
27893;SDS011;15240;50.812;4.792;2023-02-26T10:58:39;3.63;;;1.60;;
27893;SDS011;15240;50.812;4.792;2023-02-26T11:01:06;3.50;;;1.70;;
27893;SDS011;15240;50.812;4.792;2023-02-26T11:03:37;5.63;;;2.00;;
27893;SDS011;15240;50.812;4.792;2023-02-26T11:06:04;3.80;;;1.20;;
27893;SDS011;15240;50.812;4.792;2023-02-26T11:08:35;3.30;;;1.30;;
27893;SDS011;15240;50.812;4.792;2023-02-26T11:11:04;4.70;;;1.83;;
27893;SDS011;15240;50.812;4.792;2023-02-26T11:13:31;2.10;;;1.00;;
27893;SDS011;15240;50.812;4.792;2023-02-26T11:15:59;3.90;;;1.60;;
27893;SDS011;15240;50.812;4.792;2023-02-26T11:18:27;3.37;;;1.50;;
27893;SDS011;15240;50.812;4.792;2023-02-26T11:20:55;3.93;;;1.70;;
27893;SDS011;15240;50.812;4.792;2023-02-26T11:23:24;4.07;;;1.40;;
27893;SDS011;15240;50.812;4.792;2023-02-26T11:25:51;4.53;;;1.50;;
27893;SDS011;15240;50.812;4.792;2023-02-26T11:28:19;3.27;;;1.40;;
27893;SDS011;15240;50.812;4.792;2023-02-26T11:30:46;4.83;;;1.40;;
27893;SDS011;15240;50.812;4.792;2023-02-26T11:36:05;6.27;;;1.20;;
27893;SDS011;15240;50.812;4.792;2023-02-26T11:38:32;3.00;;;1.07;;
27893;SDS011;15240;50.812;4.792;2023-02-26T11:40:58;6.83;;;3.30;;
27893;SDS011;15240;50.812;4.792;2023-02-26T11:43:26;9.03;;;3.90;;
27893;SDS011;15240;50.812;4.792;2023-02-26T11:45:58;6.10;;;2.73;;
27893;SDS011;15240;50.812;4.792;2023-02-26T11:51:12;4.43;;;1.53;;
27893;SDS011;15240;50.812;4.792;2023-02-26T11:53:41;2.37;;;1.17;;
27893;SDS011;15240;50.812;4.792;2023-02-26T11:56:12;2.90;;;1.10;;
27893;SDS011;15240;50.812;4.792;2023-02-26T11:58:40;14.40;;;8.20;;
27893;SDS011;15240;50.812;4.792;2023-02-26T12:01:09;4.60;;;1.90;;
27893;SDS011;15240;50.812;4.792;2023-02-26T12:03:36;7.27;;;2.60;;
27893;SDS011;15240;50.812;4.792;2023-02-26T12:06:06;5.33;;;3.10;;
27893;SDS011;15240;50.812;4.792;2023-02-26T12:08:37;7.27;;;4.13;;
27893;SDS011;15240;50.812;4.792;2023-02-26T12:21:50;6.00;;;3.30;;
27893;SDS011;15240;50.812;4.792;2023-02-26T12:24:29;2.93;;;1.47;;
27893;SDS011;15240;50.812;4.792;2023-02-26T12:40:08;5.07;;;3.10;;
27893;SDS011;15240;50.812;4.792;2023-02-26T12:42:43;9.30;;;4.87;;
27893;SDS011;15240;50.812;4.792;2023-02-26T12:50:27;2.43;;;1.00;;
27893;SDS011;15240;50.812;4.792;2023-02-26T13:00:33;4.63;;;1.30;;
27893;SDS011;15240;50.812;4.792;2023-02-26T13:16:00;4.10;;;1.43;;
27893;SDS011;15240;50.812;4.792;2023-02-26T13:18:32;6.00;;;1.47;;
27893;SDS011;15240;50.812;4.792;2023-02-26T13:21:07;2.43;;;1.40;;
27893;SDS011;15240;50.812;4.792;2023-02-26T13:23:38;6.30;;;1.63;;
27893;SDS011;15240;50.812;4.792;2023-02-26T13:26:07;2.30;;;1.30;;
27893;SDS011;15240;50.812;4.792;2023-02-26T13:28:42;4.30;;;2.00;;
27893;SDS011;15240;50.812;4.792;2023-02-26T13:33:54;5.37;;;1.30;;
27893;SDS011;15240;50.812;4.792;2023-02-26T13:36:23;3.97;;;2.00;;
27893;SDS011;15240;50.812;4.792;2023-02-26T13:38:59;3.97;;;1.10;;
27893;SDS011;15240;50.812;4.792;2023-02-26T13:44:08;4.20;;;2.17;;
27893;SDS011;15240;50.812;4.792;2023-02-26T13:49:15;6.23;;;2.87;;
27893;SDS011;15240;50.812;4.792;2023-02-26T13:51:44;2.33;;;1.07;;
27893;SDS011;15240;50.812;4.792;2023-02-26T13:59:29;4.17;;;2.70;;
27893;SDS011;15240;50.812;4.792;2023-02-26T14:01:57;5.07;;;2.07;;
27893;SDS011;15240;50.812;4.792;2023-02-26T14:04:28;3.40;;;2.03;;
27893;SDS011;15240;50.812;4.792;2023-02-26T14:11:56;4.07;;;1.60;;
27893;SDS011;15240;50.812;4.792;2023-02-26T14:14:34;3.03;;;1.77;;
27893;SDS011;15240;50.812;4.792;2023-02-26T14:24:54;3.43;;;1.20;;
27893;SDS011;15240;50.812;4.792;2023-02-26T14:29:57;10.20;;;5.63;;
27893;SDS011;15240;50.812;4.792;2023-02-26T14:35:04;24.57;;;10.93;;
27893;SDS011;15240;50.812;4.792;2023-02-26T14:37:30;5.80;;;3.10;;
27893;SDS011;15240;50.812;4.792;2023-02-26T14:42:34;3.83;;;1.00;;
27893;SDS011;15240;50.812;4.792;2023-02-26T14:47:43;3.27;;;1.30;;
27893;SDS011;15240;50.812;4.792;2023-02-26T14:50:14;5.50;;;1.10;;
27893;SDS011;15240;50.812;4.792;2023-02-26T15:05:42;2.43;;;1.50;;
27893;SDS011;15240;50.812;4.792;2023-02-26T15:10:42;4.30;;;1.67;;
27893;SDS011;15240;50.812;4.792;2023-02-26T15:15:46;3.33;;;1.50;;
27893;SDS011;15240;50.812;4.792;2023-02-26T15:18:19;7.47;;;3.33;;
27893;SDS011;15240;50.812;4.792;2023-02-26T15:26:02;3.80;;;1.77;;
27893;SDS011;15240;50.812;4.792;2023-02-26T15:28:36;4.10;;;1.90;;
27893;SDS011;15240;50.812;4.792;2023-02-26T15:31:03;2.87;;;1.47;;
27893;SDS011;15240;50.812;4.792;2023-02-26T15:33:30;3.47;;;1.50;;
27893;SDS011;15240;50.812;4.792;2023-02-26T15:35:58;3.07;;;1.63;;
27893;SDS011;15240;50.812;4.792;2023-02-26T15:38:25;3.77;;;1.63;;
27893;SDS011;15240;50.812;4.792;2023-02-26T15:40:52;3.33;;;1.40;;
27893;SDS011;15240;50.812;4.792;2023-02-26T15:43:23;2.67;;;1.20;;
27893;SDS011;15240;50.812;4.792;2023-02-26T15:45:51;3.20;;;1.50;;
27893;SDS011;15240;50.812;4.792;2023-02-26T15:48:19;7.93;;;3.00;;
27893;SDS011;15240;50.812;4.792;2023-02-26T15:50:46;18.13;;;7.80;;
27893;SDS011;15240;50.812;4.792;2023-02-26T15:53:18;19.70;;;7.43;;
27893;SDS011;15240;50.812;4.792;2023-02-26T15:55:46;3.60;;;1.63;;
27893;SDS011;15240;50.812;4.792;2023-02-26T15:58:18;2.67;;;1.27;;
27893;SDS011;15240;50.812;4.792;2023-02-26T16:00:50;3.53;;;1.70;;
27893;SDS011;15240;50.812;4.792;2023-02-26T16:03:17;8.13;;;4.10;;
27893;SDS011;15240;50.812;4.792;2023-02-26T16:05:43;9.23;;;4.47;;
27893;SDS011;15240;50.812;4.792;2023-02-26T16:08:09;9.73;;;3.50;;
27893;SDS011;15240;50.812;4.792;2023-02-26T16:10:42;9.87;;;4.30;;
27893;SDS011;15240;50.812;4.792;2023-02-26T16:13:13;10.57;;;5.73;;
27893;SDS011;15240;50.812;4.792;2023-02-26T16:15:40;15.13;;;8.10;;
27893;SDS011;15240;50.812;4.792;2023-02-26T16:18:08;16.60;;;10.70;;
27893;SDS011;15240;50.812;4.792;2023-02-26T16:20:42;9.10;;;5.77;;
27893;SDS011;15240;50.812;4.792;2023-02-26T16:23:16;10.40;;;6.37;;
27893;SDS011;15240;50.812;4.792;2023-02-26T16:28:18;4.57;;;2.07;;
27893;SDS011;15240;50.812;4.792;2023-02-26T16:30:46;23.33;;;12.03;;
27893;SDS011;15240;50.812;4.792;2023-02-26T16:33:14;3.50;;;2.17;;
27893;SDS011;15240;50.812;4.792;2023-02-26T16:35:47;7.70;;;2.63;;
27893;SDS011;15240;50.812;4.792;2023-02-26T16:40:43;3.73;;;2.10;;
27893;SDS011;15240;50.812;4.792;2023-02-26T16:45:58;3.97;;;1.80;;
27893;SDS011;15240;50.812;4.792;2023-02-26T16:48:25;5.00;;;3.53;;
27893;SDS011;15240;50.812;4.792;2023-02-26T16:50:59;4.97;;;2.30;;
27893;SDS011;15240;50.812;4.792;2023-02-26T16:53:34;7.13;;;4.10;;
27893;SDS011;15240;50.812;4.792;2023-02-26T16:56:01;2.93;;;1.80;;
27893;SDS011;15240;50.812;4.792;2023-02-26T16:58:28;4.03;;;1.80;;
27893;SDS011;15240;50.812;4.792;2023-02-26T17:01:05;3.93;;;2.47;;
27893;SDS011;15240;50.812;4.792;2023-02-26T17:03:32;4.57;;;1.80;;
27893;SDS011;15240;50.812;4.792;2023-02-26T17:05:59;8.43;;;4.97;;
27893;SDS011;15240;50.812;4.792;2023-02-26T17:08:27;4.43;;;1.87;;
27893;SDS011;15240;50.812;4.792;2023-02-26T17:11:00;8.60;;;3.43;;
27893;SDS011;15240;50.812;4.792;2023-02-26T17:13:28;4.03;;;2.07;;
27893;SDS011;15240;50.812;4.792;2023-02-26T17:15:57;7.33;;;2.67;;
27893;SDS011;15240;50.812;4.792;2023-02-26T17:18:23;5.17;;;2.37;;
27893;SDS011;15240;50.812;4.792;2023-02-26T17:20:49;5.03;;;2.23;;
27893;SDS011;15240;50.812;4.792;2023-02-26T17:23:17;6.47;;;3.13;;
27893;SDS011;15240;50.812;4.792;2023-02-26T17:25:44;8.83;;;4.87;;
27893;SDS011;15240;50.812;4.792;2023-02-26T17:28:14;8.90;;;3.70;;
27893;SDS011;15240;50.812;4.792;2023-02-26T17:30:42;7.00;;;3.60;;
27893;SDS011;15240;50.812;4.792;2023-02-26T17:33:09;8.23;;;4.80;;
27893;SDS011;15240;50.812;4.792;2023-02-26T17:35:37;10.83;;;7.70;;
27893;SDS011;15240;50.812;4.792;2023-02-26T17:38:03;6.90;;;3.63;;
27893;SDS011;15240;50.812;4.792;2023-02-26T17:40:30;8.47;;;5.10;;
27893;SDS011;15240;50.812;4.792;2023-02-26T17:43:00;14.97;;;9.17;;
27893;SDS011;15240;50.812;4.792;2023-02-26T17:45:27;15.40;;;10.60;;
27893;SDS011;15240;50.812;4.792;2023-02-26T17:47:53;10.30;;;4.67;;
27893;SDS011;15240;50.812;4.792;2023-02-26T17:50:28;15.00;;;9.37;;
27893;SDS011;15240;50.812;4.792;2023-02-26T17:52:58;11.87;;;6.47;;
27893;SDS011;15240;50.812;4.792;2023-02-26T17:55:24;5.43;;;3.90;;
27893;SDS011;15240;50.812;4.792;2023-02-26T17:57:50;4.73;;;2.80;;
27893;SDS011;15240;50.812;4.792;2023-02-26T18:00:17;4.40;;;2.80;;
27893;SDS011;15240;50.812;4.792;2023-02-26T18:02:43;6.87;;;2.80;;